Time;durP1;ratioP1;P1;durP2;ratioP2;P2;SDS_P1;SDS_P2;PMS_P1;PMS_P2;Temp;Humidity;BMP_temperature;BMP_pressure;BME280_temperature;BME280_humidity;BME280_pressure;Samples;Min_cycle;Max_cycle;Signal;HPM_P1;HPM_P2
2023/09/10 00:01:08;;;;;;;7.80;6.97;;;;;18.60;94485.00;;;;7393824;19;20675;-75
2023/09/10 00:03:53;;;;;;;11.23;7.38;;;;;18.60;94487.00;;;;7396565;19;20152;-75
2023/09/10 00:06:28;;;;;;;11.43;6.82;;;;;18.50;94491.00;;;;7398221;19;20584;-75
2023/09/10 00:09:03;;;;;;;7.68;6.38;;;;;18.40;94496.00;;;;7395561;19;20487;-75
2023/09/10 00:11:43;;;;;;;9.07;6.63;;;;;18.30;94486.00;;;;7395347;19;20875;-75
2023/09/10 00:14:25;;;;;;;8.13;6.50;;;;;18.20;94487.00;;;;7396201;19;20192;-72
2023/09/10 00:16:59;;;;;;;13.55;7.20;;;;;18.30;94489.00;;;;7396508;19;20145;-75
2023/09/10 00:19:33;;;;;;;12.10;6.85;;;;;18.40;94484.00;;;;7394634;19;20140;-74
2023/09/10 00:22:01;;;;;;;6.85;5.95;;;;;18.40;94479.00;;;;7395392;19;20143;-76
2023/09/10 00:24:35;;;;;;;7.18;6.47;;;;;18.40;94480.00;;;;7395476;19;20147;-75
2023/09/10 00:27:04;;;;;;;11.52;6.45;;;;;18.40;94494.00;;;;7394316;19;20149;-74
2023/09/10 00:29:39;;;;;;;7.97;6.10;;;;;18.50;94490.00;;;;7395148;19;20148;-74
2023/09/10 00:32:07;;;;;;;7.25;5.70;;;;;18.50;94475.00;;;;7395241;19;20141;-75
2023/09/10 00:34:41;;;;;;;8.38;6.53;;;;;18.50;94479.00;;;;7397206;19;20137;-74
2023/09/10 00:37:09;;;;;;;9.55;5.93;;;;;18.70;94473.00;;;;7396181;19;20616;-75
2023/09/10 00:39:44;;;;;;;11.43;6.63;;;;;18.70;94479.00;;;;7394099;19;20167;-74
2023/09/10 00:42:12;;;;;;;8.30;6.30;;;;;18.60;94475.00;;;;7394892;19;20155;-75
2023/09/10 00:44:47;;;;;;;6.75;5.80;;;;;18.60;94475.00;;;;7395235;19;20619;-75
2023/09/10 00:47:15;;;;;;;10.82;5.82;;;;;18.50;94473.00;;;;7394379;19;20176;-74
2023/09/10 00:49:52;;;;;;;7.47;5.65;;;;;18.50;94473.00;;;;7393885;19;20679;-74
2023/09/10 00:52:22;;;;;;;7.93;5.72;;;;;18.40;94477.00;;;;7394925;19;20219;-75
2023/09/10 00:55:04;;;;;;;7.03;5.60;;;;;18.40;94466.00;;;;7394079;19;20151;-75
2023/09/10 00:57:41;;;;;;;9.20;6.00;;;;;18.30;94471.00;;;;7394581;19;20149;-74
2023/09/10 01:00:20;;;;;;;9.32;6.03;;;;;18.20;94469.00;;;;7394383;19;20624;-74
2023/09/10 01:02:58;;;;;;;8.30;5.72;;;;;18.20;94467.00;;;;7394597;19;20580;-73
2023/09/10 01:05:35;;;;;;;8.32;5.88;;;;;18.10;94466.00;;;;7394997;19;20595;-73
2023/09/10 01:08:12;;;;;;;8.35;5.78;;;;;18.10;94466.00;;;;7396406;19;20140;-74
2023/09/10 01:10:48;;;;;;;8.95;5.75;;;;;18.10;94464.00;;;;7403225;19;20168;-73
2023/09/10 01:14:09;;;;;;;7.53;5.85;;;;;18.20;94467.00;;;;7399002;19;20175;-72
2023/09/10 01:17:22;;;;;;;9.35;5.57;;;;;18.30;94467.00;;;;7401298;19;20140;-74
2023/09/10 01:20:19;;;;;;;7.70;5.35;;;;;18.30;94459.00;;;;7401884;19;20145;-73
2023/09/10 01:23:02;;;;;;;11.18;5.30;;;;;18.30;94474.00;;;;7403687;19;20125;-73
2023/09/10 01:25:43;;;;;;;9.48;5.30;;;;;18.30;94469.00;;;;7401320;19;20144;-72
2023/09/10 01:28:17;;;;;;;7.32;4.95;;;;;18.40;94469.00;;;;7401091;19;20149;-72
2023/09/10 01:30:51;;;;;;;12.05;5.45;;;;;18.40;94457.00;;;;7401447;19;20140;-73
2023/09/10 01:33:30;;;;;;;8.18;5.45;;;;;18.50;94463.00;;;;7403021;19;20137;-71
2023/09/10 01:36:34;;;;;;;9.40;6.05;;;;;18.40;94464.00;;;;7400185;19;20152;-73
2023/09/10 01:39:24;;;;;;;6.57;4.78;;;;;18.30;94458.00;;;;7401150;19;20144;-73
2023/09/10 01:41:59;;;;;;;7.97;4.78;;;;;18.30;94457.00;;;;7398164;19;20141;-72
2023/09/10 01:44:36;;;;;;;8.85;5.38;;;;;18.40;94461.00;;;;7402157;19;20128;-74
2023/09/10 01:47:04;;;;;;;10.18;5.55;;;;;18.40;94455.00;;;;7400201;19;20200;-72
2023/09/10 01:49:39;;;;;;;7.82;5.03;;;;;18.40;94460.00;;;;7400452;19;20140;-73
2023/09/10 01:52:10;;;;;;;9.18;4.93;;;;;18.30;94452.00;;;;7401709;19;20145;-75
2023/09/10 01:54:45;;;;;;;5.18;4.68;;;;;18.30;94459.00;;;;7400026;19;20147;-73
2023/09/10 01:57:15;;;;;;;6.32;4.75;;;;;18.30;94456.00;;;;7399616;19;20145;-76
2023/09/10 01:59:49;;;;;;;6.30;4.65;;;;;18.30;94451.00;;;;7400900;19;20184;-73
2023/09/10 02:02:20;;;;;;;7.65;4.90;;;;;18.30;94448.00;;;;7397390;19;20169;-72
2023/09/10 02:04:48;;;;;;;5.43;4.60;;;;;18.30;94449.00;;;;7399303;19;20159;-73
2023/09/10 02:07:25;;;;;;;8.88;4.68;;;;;18.20;94446.00;;;;7400154;19;20140;-71
2023/09/10 02:09:53;;;;;;;7.20;5.00;;;;;18.30;94451.00;;;;7399664;19;20137;-72
2023/09/10 02:12:35;;;;;;;9.80;5.10;;;;;18.30;94453.00;;;;7398654;19;20164;-75
2023/09/10 02:15:11;;;;;;;5.85;4.93;;;;;18.20;94444.00;;;;7399945;19;20159;-73
2023/09/10 02:17:54;;;;;;;9.50;5.15;;;;;18.20;94451.00;;;;7399092;19;20145;-75
2023/09/10 02:20:22;;;;;;;6.85;4.55;;;;;18.20;94445.00;;;;7398948;19;20148;-75
2023/09/10 02:22:57;;;;;;;5.90;4.85;;;;;18.10;94445.00;;;;7399959;19;20611;-76
2023/09/10 02:25:25;;;;;;;6.50;4.63;;;;;18.00;94448.00;;;;7399608;19;20153;-74
2023/09/10 02:28:00;;;;;;;5.65;4.40;;;;;18.00;94456.00;;;;7397971;19;20145;-76
2023/09/10 02:30:28;;;;;;;4.93;4.43;;;;;17.90;94444.00;;;;7399299;19;20144;-74
2023/09/10 02:33:03;;;;;;;7.80;4.63;;;;;17.90;94457.00;;;;7398500;19;20159;-76
2023/09/10 02:35:38;;;;;;;8.02;4.65;;;;;17.90;94444.00;;;;7398305;19;20137;-76
2023/09/10 02:38:13;;;;;;;8.80;4.53;;;;;17.90;94450.00;;;;7400270;19;20599;-74
2023/09/10 02:40:47;;;;;;;7.72;4.95;;;;;17.90;94447.00;;;;7399122;19;20148;-74
2023/09/10 02:43:23;;;;;;;6.70;4.65;;;;;17.90;94450.00;;;;7397635;19;20149;-76
2023/09/10 02:45:51;;;;;;;7.10;4.97;;;;;18.00;94447.00;;;;7398493;19;20595;-75
2023/09/10 02:48:25;;;;;;;5.30;4.60;;;;;18.10;94433.00;;;;7400157;19;20131;-75
2023/09/10 02:50:54;;;;;;;4.90;4.07;;;;;18.30;94432.00;;;;7397804;19;20152;-75
2023/09/10 02:53:29;;;;;;;6.88;4.85;;;;;18.30;94433.00;;;;7399434;19;20117;-78
2023/09/10 02:56:04;;;;;;;7.72;4.25;;;;;18.30;94432.00;;;;7398110;19;20172;-74
2023/09/10 02:58:40;;;;;;;4.40;4.00;;;;;18.30;94438.00;;;;7397315;19;20148;-75
2023/09/10 03:01:09;;;;;;;7.10;4.57;;;;;18.40;94439.00;;;;7396182;19;20632;-75
2023/09/10 03:03:43;;;;;;;5.57;4.55;;;;;18.50;94437.00;;;;7398517;19;20163;-76
2023/09/10 03:06:19;;;;;;;5.55;4.43;;;;;18.40;94434.00;;;;7397800;19;20159;-76
2023/09/10 03:08:53;;;;;;;5.03;4.15;;;;;18.10;94444.00;;;;7397497;19;20156;-73
2023/09/10 03:11:27;;;;;;;5.50;4.38;;;;;18.00;94449.00;;;;7396970;19;20912;-74
2023/09/10 03:14:08;;;;;;;6.60;4.40;;;;;18.00;94447.00;;;;7395062;19;20174;-74
2023/09/10 03:16:43;;;;;;;5.35;4.85;;;;;17.90;94442.00;;;;7393817;19;20583;-76
2023/09/10 03:19:17;;;;;;;7.93;4.88;;;;;17.90;94442.00;;;;7398162;19;20135;-75
2023/09/10 03:21:52;;;;;;;5.97;5.15;;;;;17.80;94443.00;;;;7396187;19;20151;-75
2023/09/10 03:24:26;;;;;;;8.88;4.60;;;;;17.90;94442.00;;;;7397970;19;20648;-75
2023/09/10 03:26:54;;;;;;;6.07;4.82;;;;;17.90;94449.00;;;;7397142;19;20133;-74
2023/09/10 03:29:21;;;;;;;5.88;5.28;;;;;18.00;94441.00;;;;7396311;19;20151;-74
2023/09/10 03:31:56;;;;;;;11.40;5.13;;;;;17.90;94443.00;;;;7396909;19;20611;-76
2023/09/10 03:34:27;;;;;;;8.30;5.00;;;;;17.90;94446.00;;;;7397531;19;20147;-74
2023/09/10 03:36:56;;;;;;;7.93;5.45;;;;;17.90;94441.00;;;;7396122;19;20145;-76
2023/09/10 03:39:30;;;;;;;7.88;5.53;;;;;18.00;94446.00;;;;7397871;19;20144;-75
2023/09/10 03:42:06;;;;;;;5.72;5.22;;;;;18.00;94446.00;;;;7395976;19;20500;-73
2023/09/10 03:44:42;;;;;;;7.43;5.28;;;;;17.90;94451.00;;;;7395970;19;20145;-74
2023/09/10 03:47:10;;;;;;;9.00;5.80;;;;;17.70;94443.00;;;;7397249;19;20153;-74
2023/09/10 03:49:38;;;;;;;6.65;5.50;;;;;17.50;94451.00;;;;7396252;19;20145;-74
2023/09/10 03:52:17;;;;;;;8.25;5.97;;;;;17.40;94450.00;;;;7395863;19;20132;-75
2023/09/10 03:54:45;;;;;;;9.55;6.28;;;;;17.40;94447.00;;;;7396471;19;20141;-75
2023/09/10 03:57:19;;;;;;;7.00;5.63;;;;;17.30;94440.00;;;;7397090;19;20639;-75
2023/09/10 03:59:47;;;;;;;9.18;5.93;;;;;17.30;94443.00;;;;7396466;19;20204;-74
2023/09/10 04:02:23;;;;;;;7.68;6.47;;;;;17.30;94451.00;;;;7395739;19;20507;-74
2023/09/10 04:04:51;;;;;;;6.85;5.70;;;;;17.30;94447.00;;;;7396003;19;20610;-75
2023/09/10 04:07:19;;;;;;;7.85;6.03;;;;;17.30;94442.00;;;;7397734;19;20603;-74
2023/09/10 04:09:55;;;;;;;6.45;5.72;;;;;17.30;94448.00;;;;7395742;19;20600;-75
2023/09/10 04:12:46;;;;;;;7.50;6.05;;;;;17.30;94449.00;;;;7395215;19;20654;-74
2023/09/10 04:15:21;;;;;;;10.20;6.32;;;;;17.30;94450.00;;;;7392866;19;20120;-74
2023/09/10 04:17:56;;;;;;;6.88;6.18;;;;;17.20;94451.00;;;;7395149;19;20128;-75
2023/09/10 04:20:33;;;;;;;6.88;5.78;;;;;17.30;94449.00;;;;7395724;19;20639;-74
2023/09/10 04:23:07;;;;;;;7.55;6.25;;;;;17.20;94448.00;;;;7392278;19;20145;-75
2023/09/10 04:25:41;;;;;;;8.15;6.05;;;;;17.30;94452.00;;;;7395199;19;20132;-75
2023/09/10 04:28:09;;;;;;;6.75;5.85;;;;;17.30;94451.00;;;;7395103;19;20125;-73
2023/09/10 04:30:43;;;;;;;7.60;5.43;;;;;17.30;94446.00;;;;7395522;19;20527;-74
2023/09/10 04:33:18;;;;;;;9.15;6.10;;;;;17.30;94442.00;;;;7396128;19;20132;-72
2023/09/10 04:35:57;;;;;;;7.90;6.05;;;;;17.30;94455.00;;;;7394228;19;20658;-72
2023/09/10 04:38:25;;;;;;;9.32;5.72;;;;;17.40;94458.00;;;;7396379;19;20166;-73
2023/09/10 04:40:59;;;;;;;6.85;5.60;;;;;17.40;94456.00;;;;7395416;19;20136;-73
2023/09/10 04:43:33;;;;;;;8.38;6.00;;;;;17.60;94453.00;;;;7391703;19;20136;-72
2023/09/10 04:46:07;;;;;;;11.60;5.65;;;;;17.60;94461.00;;;;7395388;19;20144;-73
2023/09/10 04:48:42;;;;;;;6.40;5.80;;;;;17.60;94463.00;;;;7394720;19;20154;-73
2023/09/10 04:51:16;;;;;;;7.85;5.18;;;;;17.60;94457.00;;;;7394543;19;20155;-72
2023/09/10 04:53:51;;;;;;;6.60;5.35;;;;;17.60;94459.00;;;;7395067;19;20500;-72
2023/09/10 04:56:25;;;;;;;5.60;4.97;;;;;17.80;94452.00;;;;7394473;19;20231;-72
2023/09/10 04:58:53;;;;;;;8.18;5.25;;;;;17.70;94457.00;;;;7394467;19;20168;-75
2023/09/10 05:01:27;;;;;;;6.03;4.90;;;;;17.70;94460.00;;;;7394348;19;20176;-73
2023/09/10 05:04:03;;;;;;;9.73;4.97;;;;;17.70;94458.00;;;;7393915;19;20137;-72
2023/09/10 05:06:38;;;;;;;7.35;4.47;;;;;17.70;94462.00;;;;7393893;19;20148;-73
2023/09/10 05:09:08;;;;;;;10.50;5.03;;;;;17.60;94469.00;;;;7394455;19;20193;-72
2023/09/10 05:11:43;;;;;;;5.68;5.07;;;;;17.60;94468.00;;;;7393035;19;20137;-73
2023/09/10 05:14:17;;;;;;;8.35;4.80;;;;;17.60;94468.00;;;;7389429;19;20196;-74
2023/09/10 05:16:52;;;;;;;5.28;4.75;;;;;17.50;94468.00;;;;7391623;19;20653;-72
2023/09/10 05:19:26;;;;;;;5.70;4.72;;;;;17.50;94468.00;;;;7393318;19;20149;-74
2023/09/10 05:22:05;;;;;;;6.15;5.22;;;;;17.60;94467.00;;;;7393286;19;20663;-72
2023/09/10 05:24:33;;;;;;;6.07;5.03;;;;;17.70;94470.00;;;;7393321;19;20133;-72
2023/09/10 05:27:08;;;;;;;6.80;5.15;;;;;17.80;94468.00;;;;7394688;19;20144;-73
2023/09/10 05:29:46;;;;;;;7.90;5.45;;;;;18.00;94472.00;;;;7395259;19;20144;-72
2023/09/10 05:32:14;;;;;;;5.63;5.00;;;;;18.10;94473.00;;;;7393125;19;20155;-73
2023/09/10 05:34:50;;;;;;;6.65;5.40;;;;;18.20;94475.00;;;;7393442;19;20663;-74
2023/09/10 05:37:26;;;;;;;6.15;5.35;;;;;18.30;94476.00;;;;7393909;19;20483;-72
2023/09/10 05:40:00;;;;;;;6.25;5.38;;;;;18.40;94476.00;;;;7394773;19;20136;-73
2023/09/10 05:42:29;;;;;;;6.72;6.03;;;;;18.50;94474.00;;;;7392406;19;20145;-73
2023/09/10 05:45:07;;;;;;;6.70;5.97;;;;;18.70;94478.00;;;;7394613;19;20215;-76
2023/09/10 05:47:34;;;;;;;7.90;6.90;;;;;18.90;94473.00;;;;7392475;19;20152;-76
2023/09/10 05:50:10;;;;;;;6.32;5.72;;;;;19.00;94482.00;;;;7393082;19;20684;-74
2023/09/10 05:52:38;;;;;;;6.70;5.97;;;;;19.10;94481.00;;;;7389534;19;20149;-77
2023/09/10 05:55:14;;;;;;;7.65;6.00;;;;;19.30;94486.00;;;;7390065;19;20360;-75
2023/09/10 05:57:42;;;;;;;6.78;5.45;;;;;19.30;94473.00;;;;7394706;19;20149;-76
2023/09/10 06:00:16;;;;;;;6.72;6.05;;;;;19.50;94475.00;;;;7387101;19;20172;-75
2023/09/10 06:02:45;;;;;;;7.13;5.75;;;;;19.60;94482.00;;;;7388671;19;20157;-73
2023/09/10 06:05:19;;;;;;;6.78;6.05;;;;;19.80;94481.00;;;;7387049;19;20147;-75
2023/09/10 06:07:47;;;;;;;6.25;5.63;;;;;19.90;94475.00;;;;7387773;19;20133;-75
2023/09/10 06:10:21;;;;;;;9.57;7.30;;;;;20.10;94473.00;;;;7386836;19;20148;-74
2023/09/10 06:12:55;;;;;;;7.72;6.32;;;;;20.20;94472.00;;;;7387438;19;20136;-75
2023/09/10 06:15:35;;;;;;;7.05;6.35;;;;;20.40;94472.00;;;;7387247;19;20499;-74
2023/09/10 06:18:10;;;;;;;7.43;6.10;;;;;20.50;94480.00;;;;7388263;19;20133;-74
2023/09/10 06:20:44;;;;;;;6.97;6.25;;;;;20.80;94483.00;;;;7386387;19;20148;-74
2023/09/10 06:23:18;;;;;;;7.32;6.55;;;;;20.90;94478.00;;;;7387150;19;20132;-75
2023/09/10 06:25:46;;;;;;;7.10;6.40;;;;;21.10;94479.00;;;;7389078;19;20143;-74
2023/09/10 06:28:24;;;;;;;7.28;6.57;;;;;21.10;94484.00;;;;7387538;19;20618;-73
2023/09/10 06:30:59;;;;;;;9.65;6.30;;;;;21.20;94479.00;;;;7387614;19;20175;-76
2023/09/10 06:33:40;;;;;;;8.48;6.22;;;;;21.30;94487.00;;;;7388814;19;20144;-73
2023/09/10 06:36:09;;;;;;;9.30;6.40;;;;;21.40;94492.00;;;;7384113;19;20683;-75
2023/09/10 06:38:47;;;;;;;7.13;6.30;;;;;21.60;94485.00;;;;7387206;19;21240;-74
2023/09/10 06:41:16;;;;;;;9.38;6.00;;;;;21.80;94486.00;;;;7386535;19;20141;-75
2023/09/10 06:43:50;;;;;;;9.93;6.30;;;;;21.90;94493.00;;;;7386303;19;20212;-73
2023/09/10 06:46:18;;;;;;;7.85;6.25;;;;;22.10;94493.00;;;;7388255;19;20156;-73
2023/09/10 06:48:52;;;;;;;10.93;6.75;;;;;22.20;94496.00;;;;7388396;19;20124;-75
2023/09/10 06:51:20;;;;;;;7.18;6.45;;;;;22.30;94495.00;;;;7385659;19;20153;-75
2023/09/10 06:53:54;;;;;;;7.47;6.57;;;;;22.50;94494.00;;;;7388697;19;20658;-72
2023/09/10 06:56:25;;;;;;;7.07;6.38;;;;;22.70;94498.00;;;;7387142;19;20595;-77
2023/09/10 06:58:59;;;;;;;7.85;5.88;;;;;22.80;94495.00;;;;7386894;19;20160;-75
2023/09/10 07:01:27;;;;;;;7.55;6.10;;;;;22.90;94492.00;;;;7386957;19;20176;-73
2023/09/10 07:04:14;;;;;;;13.48;6.00;;;;;23.00;94499.00;;;;7385587;19;20128;-77
2023/09/10 07:06:51;;;;;;;8.18;6.13;;;;;23.10;94498.00;;;;7385462;19;20557;-75
2023/09/10 07:09:26;;;;;;;6.60;5.45;;;;;23.30;94499.00;;;;7389240;19;20145;-75
2023/09/10 07:12:01;;;;;;;7.32;6.60;;;;;23.50;94504.00;;;;7386462;19;20149;-73
2023/09/10 07:14:49;;;;;;;9.13;5.72;;;;;23.50;94510.00;;;;7385355;19;20201;-73
2023/09/10 07:17:24;;;;;;;8.52;5.80;;;;;23.60;94501.00;;;;7385809;19;20620;-75
2023/09/10 07:19:58;;;;;;;7.95;5.78;;;;;23.70;94506.00;;;;7387755;19;20583;-74
2023/09/10 07:22:26;;;;;;;7.35;6.65;;;;;23.70;94506.00;;;;7385438;19;20155;-77
2023/09/10 07:25:00;;;;;;;7.80;5.65;;;;;24.00;94508.00;;;;7384989;19;20137;-74
2023/09/10 07:27:29;;;;;;;10.30;5.88;;;;;24.00;94506.00;;;;7386520;19;20156;-75
2023/09/10 07:30:05;;;;;;;8.35;6.00;;;;;24.20;94506.00;;;;7387470;19;20614;-73
2023/09/10 07:32:41;;;;;;;6.38;5.28;;;;;24.30;94510.00;;;;7386300;19;20144;-72
2023/09/10 07:35:16;;;;;;;8.80;5.50;;;;;24.30;94507.00;;;;7385933;19;20583;-74
2023/09/10 07:37:44;;;;;;;6.63;5.88;;;;;24.50;94505.00;;;;7385538;19;20137;-74
2023/09/10 07:40:19;;;;;;;9.32;5.45;;;;;24.50;94515.00;;;;7381591;19;20155;-72
2023/09/10 07:42:48;;;;;;;6.63;5.38;;;;;24.70;94515.00;;;;7377462;19;20958;-74
2023/09/10 07:45:22;;;;;;;11.15;6.20;;;;;24.80;94515.00;;;;7387774;19;20445;-76
2023/09/10 07:47:50;;;;;;;13.82;5.75;;;;;25.10;94525.00;;;;7386310;19;20651;-71
2023/09/10 07:50:28;;;;;;;8.45;5.95;;;;;25.20;94515.00;;;;7386340;19;20220;-74
2023/09/10 07:52:56;;;;;;;6.55;5.85;;;;;25.10;94523.00;;;;7385978;19;20620;-76
2023/09/10 07:55:30;;;;;;;7.63;5.47;;;;;25.10;94517.00;;;;7387172;19;20152;-74
2023/09/10 07:57:59;;;;;;;9.50;5.25;;;;;25.00;94526.00;;;;7386853;19;20137;-72
2023/09/10 08:00:26;;;;;;;6.05;5.25;;;;;25.20;94519.00;;;;7387255;19;20140;-74
2023/09/10 08:03:03;;;;;;;7.50;5.55;;;;;25.20;94527.00;;;;7388419;19;21710;-76
2023/09/10 08:05:37;;;;;;;6.85;5.28;;;;;25.30;94525.00;;;;7387115;19;20207;-78
2023/09/10 08:08:11;;;;;;;8.05;5.60;;;;;25.40;94524.00;;;;7386596;19;20636;-79
2023/09/10 08:10:46;;;;;;;7.85;5.43;;;;;25.50;94530.00;;;;7386214;19;20140;-77
2023/09/10 08:13:21;;;;;;;6.22;5.55;;;;;25.70;94525.00;;;;7389483;19;20193;-77
2023/09/10 08:16:09;;;;;;;6.63;5.28;;;;;25.60;94520.00;;;;7396342;19;20155;-78
2023/09/10 08:19:04;;;;;;;6.75;5.68;;;;;25.70;94520.00;;;;7397378;19;20136;-77
2023/09/10 08:21:39;;;;;;;6.90;5.20;;;;;26.00;94522.00;;;;7397165;19;20148;-78
2023/09/10 08:24:07;;;;;;;6.25;5.30;;;;;26.00;94525.00;;;;7395815;19;20616;-78
2023/09/10 08:26:41;;;;;;;6.90;5.53;;;;;26.00;94523.00;;;;7397478;19;20226;-81
2023/09/10 08:29:17;;;;;;;9.82;5.32;;;;;26.20;94525.00;;;;7389210;19;20765;-79
2023/09/10 08:31:52;;;;;;;7.88;5.43;;;;;26.30;94530.00;;;;7396523;19;20132;-77
2023/09/10 08:34:26;;;;;;;6.85;5.22;;;;;26.20;94528.00;;;;7392716;19;20148;-78
2023/09/10 08:36:54;;;;;;;5.97;5.47;;;;;26.40;94527.00;;;;7396572;19;20145;-78
2023/09/10 08:39:29;;;;;;;9.95;5.82;;;;;26.70;94533.00;;;;7396616;19;20138;-79
2023/09/10 08:42:25;;;;;;;8.52;5.43;;;;;26.20;94531.00;;;;7395174;19;20493;-78
2023/09/10 08:45:07;;;;;;;6.55;5.32;;;;;26.40;94525.00;;;;7394193;19;20166;-79
2023/09/10 08:47:43;;;;;;;6.05;5.45;;;;;26.50;94534.00;;;;7395678;19;20141;-81
2023/09/10 08:50:18;;;;;;;6.20;5.05;;;;;26.80;94540.00;;;;7395813;19;20470;-77
2023/09/10 08:52:53;;;;;;;8.82;5.22;;;;;27.00;94535.00;;;;7394070;19;20161;-79
2023/09/10 08:55:22;;;;;;;8.27;5.60;;;;;26.90;94537.00;;;;7396256;19;20128;-79
2023/09/10 08:57:53;;;;;;;7.88;5.55;;;;;27.20;94539.00;;;;7395365;19;20531;-78
2023/09/10 09:00:28;;;;;;;6.85;5.03;;;;;27.10;94533.00;;;;7394872;19;20183;-78
2023/09/10 09:03:03;;;;;;;6.65;5.10;;;;;26.90;94543.00;;;;7397236;19;20591;-78
2023/09/10 09:05:39;;;;;;;6.93;5.57;;;;;26.90;94537.00;;;;7393762;19;20144;-78
2023/09/10 09:08:15;;;;;;;6.63;5.60;;;;;26.90;94536.00;;;;7394735;19;20144;-78
2023/09/10 09:10:50;;;;;;;8.60;5.60;;;;;27.10;94536.00;;;;7395131;19;20156;-78
2023/09/10 09:13:27;;;;;;;7.95;5.22;;;;;27.00;94528.00;;;;7395372;19;20140;-74
2023/09/10 09:16:11;;;;;;;6.43;5.70;;;;;27.30;94530.00;;;;7393499;19;20620;-75
2023/09/10 09:18:46;;;;;;;7.93;5.22;;;;;27.40;94537.00;;;;7395464;19;20211;-76
2023/09/10 09:21:23;;;;;;;6.53;5.57;;;;;27.60;94538.00;;;;7395587;19;20164;-75
2023/09/10 09:24:01;;;;;;;8.73;5.18;;;;;27.50;94530.00;;;;7393238;19;20504;-75
2023/09/10 09:26:30;;;;;;;10.45;5.30;;;;;27.60;94531.00;;;;7395004;19;20599;-75
2023/09/10 09:29:05;;;;;;;8.15;5.45;;;;;27.60;94530.00;;;;7395843;19;20129;-74
2023/09/10 09:31:39;;;;;;;6.00;5.30;;;;;27.60;94525.00;;;;7399947;19;20183;-74
2023/09/10 09:34:13;;;;;;;7.72;5.50;;;;;27.70;94525.00;;;;7402274;19;20144;-76
2023/09/10 09:36:51;;;;;;;7.25;5.43;;;;;28.10;94519.00;;;;7401152;19;20630;-74
2023/09/10 09:39:20;;;;;;;8.93;5.82;;;;;28.10;94523.00;;;;7401033;19;20152;-75
2023/09/10 09:41:54;;;;;;;11.85;5.70;;;;;28.00;94527.00;;;;7401218;19;20622;-74
2023/09/10 09:44:28;;;;;;;6.00;5.40;;;;;27.90;94521.00;;;;7400840;19;20145;-76
2023/09/10 09:47:03;;;;;;;8.32;5.70;;;;;28.10;94520.00;;;;7400258;19;20168;-73
2023/09/10 09:49:50;;;;;;;7.07;5.70;;;;;28.30;94519.00;;;;7401737;19;20504;-75
2023/09/10 09:52:20;;;;;;;8.38;5.15;;;;;28.60;94517.00;;;;7401566;19;20147;-75
2023/09/10 09:54:56;;;;;;;8.48;5.25;;;;;28.40;94508.00;;;;7402152;19;20154;-74
2023/09/10 09:57:34;;;;;;;5.80;5.22;;;;;28.30;94511.00;;;;7401153;19;20137;-75
2023/09/10 10:00:09;;;;;;;5.97;5.38;;;;;27.80;94505.00;;;;7401646;19;20141;-76
2023/09/10 10:02:38;;;;;;;7.40;5.40;;;;;27.50;94513.00;;;;7397290;19;20634;-74
2023/09/10 10:05:13;;;;;;;7.63;5.05;;;;;28.00;94506.00;;;;7399405;19;20198;-75
2023/09/10 10:07:41;;;;;;;6.32;5.30;;;;;28.50;94507.00;;;;7402158;19;20605;-74
2023/09/10 10:10:20;;;;;;;5.63;5.13;;;;;28.70;94509.00;;;;7397624;19;20205;-74
2023/09/10 10:12:55;;;;;;;9.85;5.68;;;;;29.00;94503.00;;;;7401043;19;20178;-76
2023/09/10 10:15:31;;;;;;;6.32;5.40;;;;;28.80;94508.00;;;;7397418;19;20168;-76
2023/09/10 10:18:07;;;;;;;6.88;5.65;;;;;28.60;94506.00;;;;7400538;19;20137;-75
2023/09/10 10:20:37;;;;;;;6.05;5.22;;;;;28.90;94501.00;;;;7400798;19;20137;-75
2023/09/10 10:23:13;;;;;;;5.75;5.05;;;;;29.30;94492.00;;;;7400849;19;20150;-74
2023/09/10 10:25:53;;;;;;;6.78;5.40;;;;;29.70;94489.00;;;;7399567;19;20484;-74
2023/09/10 10:28:30;;;;;;;7.72;5.20;;;;;29.50;94486.00;;;;7400819;19;20141;-74
2023/09/10 10:31:14;;;;;;;6.07;5.38;;;;;29.80;94489.00;;;;7400745;19;20608;-72
2023/09/10 10:34:16;;;;;;;7.30;5.38;;;;;29.50;94485.00;;;;7401628;19;20150;-74
2023/09/10 10:37:18;;;;;;;6.07;5.47;;;;;29.80;94477.00;;;;7399045;19;20603;-74
2023/09/10 10:39:59;;;;;;;9.35;5.57;;;;;29.50;94479.00;;;;7401687;19;20136;-73
2023/09/10 10:42:42;;;;;;;6.32;5.72;;;;;29.50;94487.00;;;;7398664;19;20606;-76
2023/09/10 10:45:15;;;;;;;7.43;5.10;;;;;29.40;94480.00;;;;7398130;19;20174;-77
2023/09/10 10:47:52;;;;;;;8.20;5.57;;;;;29.50;94479.00;;;;7399592;19;20620;-73
2023/09/10 10:50:30;;;;;;;11.63;5.43;;;;;29.80;94482.00;;;;7400001;19;20144;-73
2023/09/10 10:53:17;;;;;;;6.55;5.10;;;;;30.10;94484.00;;;;7401243;19;20495;-75
2023/09/10 10:56:02;;;;;;;7.80;5.40;;;;;29.70;94481.00;;;;7399050;19;20148;-73
2023/09/10 10:58:39;;;;;;;8.50;5.63;;;;;30.10;94473.00;;;;7399924;19;20540;-75
2023/09/10 11:01:13;;;;;;;6.88;5.75;;;;;30.10;94486.00;;;;7396953;19;20168;-75
2023/09/10 11:03:44;;;;;;;6.78;5.93;;;;;30.10;94474.00;;;;7399584;19;20144;-75
2023/09/10 11:06:18;;;;;;;9.55;5.72;;;;;30.40;94468.00;;;;7398292;19;20148;-74
2023/09/10 11:08:52;;;;;;;7.57;5.50;;;;;30.50;94471.00;;;;7398242;19;20452;-73
2023/09/10 11:11:37;;;;;;;9.05;5.43;;;;;30.80;94475.00;;;;7400172;19;20487;-74
2023/09/10 11:14:17;;;;;;;8.57;5.50;;;;;30.90;94471.00;;;;7397963;19;20510;-75
2023/09/10 11:16:46;;;;;;;6.05;5.45;;;;;30.90;94474.00;;;;7397053;19;20148;-74
2023/09/10 11:19:45;;;;;;;7.82;5.63;;;;;31.00;94468.00;;;;7398385;19;20140;-76
2023/09/10 11:22:14;;;;;;;6.30;5.60;;;;;31.30;94469.00;;;;7397736;19;20165;-75
2023/09/10 11:25:05;;;;;;;7.70;5.72;;;;;30.90;94459.00;;;;7397055;19;20607;-73
2023/09/10 11:27:34;;;;;;;7.65;5.80;;;;;31.30;94462.00;;;;7397257;19;20171;-75
2023/09/10 11:30:13;;;;;;;8.55;5.25;;;;;31.20;94458.00;;;;7398448;19;20146;-75
2023/09/10 11:32:43;;;;;;;6.57;5.63;;;;;31.50;94454.00;;;;7397709;19;20208;-74
2023/09/10 11:35:20;;;;;;;6.32;5.30;;;;;31.60;94448.00;;;;7396849;19;20627;-80
2023/09/10 11:37:53;;;;;;;6.75;5.53;;;;;31.90;94453.00;;;;7400800;19;20124;-77
2023/09/10 11:40:28;;;;;;;7.20;5.75;;;;;31.80;94446.00;;;;7397775;19;20140;-79
2023/09/10 11:43:03;;;;;;;6.97;5.30;;;;;31.50;94456.00;;;;7398671;19;20151;-78
2023/09/10 11:45:37;;;;;;;9.00;5.53;;;;;31.50;94450.00;;;;7397474;19;20144;-79
2023/09/10 11:48:06;;;;;;;8.23;5.72;;;;;31.80;94448.00;;;;7399619;19;20120;-78
2023/09/10 11:50:36;;;;;;;6.60;6.00;;;;;32.20;94448.00;;;;7397714;19;20144;-77
2023/09/10 11:53:10;;;;;;;8.63;5.75;;;;;32.10;94446.00;;;;7397465;19;20140;-79
2023/09/10 11:55:44;;;;;;;6.43;5.30;;;;;31.80;94445.00;;;;7396929;19;20512;-79
2023/09/10 11:58:13;;;;;;;8.48;5.97;;;;;31.90;94452.00;;;;7399013;19;20620;-78
2023/09/10 12:00:50;;;;;;;10.15;5.90;;;;;31.70;94447.00;;;;7397195;19;20480;-80
2023/09/10 12:03:25;;;;;;;7.78;5.88;;;;;31.80;94443.00;;;;7397811;19;20520;-78
2023/09/10 12:06:00;;;;;;;7.32;5.47;;;;;30.60;94454.00;;;;7393885;19;20211;-79
2023/09/10 12:08:30;;;;;;;11.30;5.82;;;;;30.60;94459.00;;;;7398207;19;20171;-80
2023/09/10 12:11:08;;;;;;;7.97;5.30;;;;;30.90;94448.00;;;;7396840;19;20568;-78
2023/09/10 12:13:51;;;;;;;7.18;5.72;;;;;31.30;94458.00;;;;7395500;19;20172;-77
2023/09/10 12:16:32;;;;;;;7.50;6.18;;;;;31.30;94448.00;;;;7396327;19;20140;-76
2023/09/10 12:19:07;;;;;;;7.45;5.78;;;;;31.60;94447.00;;;;7396973;19;20148;-78
2023/09/10 12:21:35;;;;;;;8.07;5.10;;;;;31.30;94446.00;;;;7391466;19;20172;-80
2023/09/10 12:24:11;;;;;;;7.88;5.60;;;;;31.70;94444.00;;;;7394965;19;20163;-78
2023/09/10 12:26:45;;;;;;;7.30;5.70;;;;;32.10;94441.00;;;;7395974;19;20157;-77
2023/09/10 12:29:19;;;;;;;7.93;5.18;;;;;32.20;94436.00;;;;7388007;19;20567;-77
2023/09/10 12:31:52;;;;;;;12.25;6.25;;;;;32.20;94440.00;;;;7389740;19;20155;-78
2023/09/10 12:34:29;;;;;;;9.73;5.65;;;;;32.20;94438.00;;;;7388146;19;20151;-77
2023/09/10 12:36:57;;;;;;;6.18;5.40;;;;;32.60;94439.00;;;;7392462;19;20587;-80
2023/09/10 12:39:33;;;;;;;6.38;5.57;;;;;32.40;94442.00;;;;7390880;19;20140;-79
2023/09/10 12:42:01;;;;;;;9.02;5.72;;;;;32.80;94435.00;;;;7392675;19;20149;-78
2023/09/10 12:44:33;;;;;;;6.78;5.78;;;;;32.10;94441.00;;;;7392368;19;20140;-76
2023/09/10 12:47:09;;;;;;;6.70;5.35;;;;;32.20;94432.00;;;;7390640;19;20152;-76
2023/09/10 12:49:41;;;;;;;6.93;5.53;;;;;31.60;94433.00;;;;7391467;19;20192;-75
2023/09/10 12:52:15;;;;;;;8.57;5.88;;;;;32.40;94439.00;;;;7392201;19;20171;-77
2023/09/10 12:54:50;;;;;;;8.70;5.15;;;;;33.10;94427.00;;;;7389949;19;20147;-76